Rush — ZGAV9 — position and weather

sailwx.info

Track history (hours):
 
Tides and Currents Weather Stations Pressure Air Temp Water Temp Dewpoint Dewpoint Depression Visibility Wind Speed Wind Dir Waves Ship Positions

Rush

Last reported at 2016-Jul-24 11:33 UTC. Time now 2016-Jul-26 06:27 UTC.
Position N 37°10' E 015°23'.

Length 50 m; draft 1.8 m.

Type: High speed craft. MMSI: 319035300.

Date/timePositionNaut miles runAvg speedWind from/ knotsBaromVisibWave heightAir tempDewpointWater temp
2016-Jul-24 11:33N 37°10' E 015°23'4128.1
2016-Jul-24 10:05N 37°43' E 015°54'28710.4
2016-Jul-23 06:33N 42°03' E 018°32'2412.0
2016-Jul-23 04:33N 42°26' E 018°41'0 0.0
2016-Jul-23 03:33N 42°26' E 018°41'0 0.0
2016-Jul-23 02:33N 42°26' E 018°41'0 0.0
2016-Jul-23 01:33N 42°26' E 018°41'0 0.0
2016-Jul-23 00:33N 42°26' E 018°41'0 0.0
2016-Jul-22 23:33N 42°26' E 018°41'0 0.0
2016-Jul-22 22:33N 42°26' E 018°41'0 0.0
2016-Jul-22 21:33N 42°26' E 018°41'0 0.0
2016-Jul-22 20:33N 42°26' E 018°41'0 0.0
2016-Jul-22 19:33N 42°26' E 018°41'0 0.0
2016-Jul-22 18:33N 42°26' E 018°41'0 0.0
2016-Jul-22 17:33N 42°26' E 018°41'0 0.0
2016-Jul-22 16:33N 42°26' E 018°41'0 0.3
2016-Jul-22 15:31N 42°26' E 018°41'0 0.0
2016-Jul-22 13:31N 42°26' E 018°41'0 0.0
2016-Jul-22 12:31N 42°26' E 018°41'0 0.0
2016-Jul-22 11:31N 42°26' E 018°41'0 0.0
2016-Jul-22 10:31N 42°26' E 018°41'0 0.0
2016-Jul-22 09:31N 42°26' E 018°41'0 0.0
2016-Jul-22 08:31N 42°26' E 018°41'0 0.0
2016-Jul-22 07:31N 42°26' E 018°41'0 0.0
2016-Jul-22 04:31N 42°26' E 018°41'0 0.0
2016-Jul-22 03:31N 42°26' E 018°41'0 0.0
2016-Jul-22 02:31N 42°26' E 018°41'0 0.0
2016-Jul-22 01:31N 42°26' E 018°41'0 0.0
2016-Jul-22 00:31N 42°26' E 018°41'0 0.0
2016-Jul-21 23:31N 42°26' E 018°41'0 0.0
2016-Jul-21 22:31N 42°26' E 018°41'0 0.0
2016-Jul-21 21:31N 42°26' E 018°41'0 0.0
2016-Jul-21 20:31N 42°26' E 018°41'0 0.0
2016-Jul-21 19:31N 42°26' E 018°41'0 0.0
2016-Jul-21 18:31N 42°26' E 018°41'0 0.0
2016-Jul-21 17:32N 42°26' E 018°41'1 0.7
2016-Jul-21 16:34N 42°26' E 018°41'9 8.6
2016-Jul-21 15:34N 42°19' E 018°33'293 5.7
2016-Jul-19 12:28N 37°52' E 015°55'1920.7
2016-Jul-19 11:34N 38°03' E 015°35'9 8.8
2016-Jul-19 10:33N 38°12' E 015°37'10 9.9
2016-Jul-19 09:34N 38°03' E 015°31'9 8.7
2016-Jul-19 08:33N 38°12' E 015°33'0 0.0
2016-Jul-19 07:33N 38°12' E 015°33'0 0.0
2016-Jul-19 04:33N 38°12' E 015°33'0 0.0
2016-Jul-19 03:33N 38°12' E 015°33'0 0.0
2016-Jul-18 21:33N 38°12' E 015°33'0 0.1
2016-Jul-18 20:33N 38°12' E 015°34'0 0.1
2016-Jul-18 19:32N 38°12' E 015°33'0 0.0
2016-Jul-18 18:32N 38°12' E 015°33'8 8.3
2016-Jul-18 17:33N 38°17' E 015°41'2424.5
2016-Jul-18 16:34N 38°30' E 015°14'  
Track history (hours):
 
Tides and Currents Weather Stations Pressure Air Temp Water Temp Dewpoint Dewpoint Depression Visibility Wind Speed Wind Dir Waves Ship Positions

Rush

Last reported at 2016-Jul-24 11:33 UTC. Time now 2016-Jul-26 06:27 UTC.
Position N 37°10' E 015°23'.

Length 50 m; draft 1.8 m.

Type: High speed craft. MMSI: 319035300.

Date/timePositionNaut miles runAvg speedWind from/ knotsBaromVisibWave heightAir tempDewpointWater temp
2016-Jul-24 11:33N 37°10' E 015°23'4128.1
2016-Jul-24 10:05N 37°43' E 015°54'28710.4
2016-Jul-23 06:33N 42°03' E 018°32'2412.0
2016-Jul-23 04:33N 42°26' E 018°41'0 0.0
2016-Jul-23 03:33N 42°26' E 018°41'0 0.0
2016-Jul-23 02:33N 42°26' E 018°41'0 0.0
2016-Jul-23 01:33N 42°26' E 018°41'0 0.0
2016-Jul-23 00:33N 42°26' E 018°41'0 0.0
2016-Jul-22 23:33N 42°26' E 018°41'0 0.0
2016-Jul-22 22:33N 42°26' E 018°41'0 0.0
2016-Jul-22 21:33N 42°26' E 018°41'0 0.0
2016-Jul-22 20:33N 42°26' E 018°41'0 0.0
2016-Jul-22 19:33N 42°26' E 018°41'0 0.0
2016-Jul-22 18:33N 42°26' E 018°41'0 0.0
2016-Jul-22 17:33N 42°26' E 018°41'0 0.0
2016-Jul-22 16:33N 42°26' E 018°41'0 0.3
2016-Jul-22 15:31N 42°26' E 018°41'0 0.0
2016-Jul-22 13:31N 42°26' E 018°41'0 0.0
2016-Jul-22 12:31N 42°26' E 018°41'0 0.0
2016-Jul-22 11:31N 42°26' E 018°41'0 0.0
2016-Jul-22 10:31N 42°26' E 018°41'0 0.0
2016-Jul-22 09:31N 42°26' E 018°41'0 0.0
2016-Jul-22 08:31N 42°26' E 018°41'0 0.0
2016-Jul-22 07:31N 42°26' E 018°41'0 0.0
2016-Jul-22 04:31N 42°26' E 018°41'0 0.0
2016-Jul-22 03:31N 42°26' E 018°41'0 0.0
2016-Jul-22 02:31N 42°26' E 018°41'0 0.0
2016-Jul-22 01:31N 42°26' E 018°41'0 0.0
2016-Jul-22 00:31N 42°26' E 018°41'0 0.0
2016-Jul-21 23:31N 42°26' E 018°41'0 0.0
2016-Jul-21 22:31N 42°26' E 018°41'0 0.0
2016-Jul-21 21:31N 42°26' E 018°41'0 0.0
2016-Jul-21 20:31N 42°26' E 018°41'0 0.0
2016-Jul-21 19:31N 42°26' E 018°41'0 0.0
2016-Jul-21 18:31N 42°26' E 018°41'0 0.0
2016-Jul-21 17:32N 42°26' E 018°41'1 0.7
2016-Jul-21 16:34N 42°26' E 018°41'9 8.6
2016-Jul-21 15:34N 42°19' E 018°33'293 5.7
2016-Jul-19 12:28N 37°52' E 015°55'1920.7
2016-Jul-19 11:34N 38°03' E 015°35'9 8.8
2016-Jul-19 10:33N 38°12' E 015°37'10 9.9
2016-Jul-19 09:34N 38°03' E 015°31'9 8.7
2016-Jul-19 08:33N 38°12' E 015°33'0 0.0
2016-Jul-19 07:33N 38°12' E 015°33'0 0.0
2016-Jul-19 04:33N 38°12' E 015°33'0 0.0
2016-Jul-19 03:33N 38°12' E 015°33'0 0.0
2016-Jul-18 21:33N 38°12' E 015°33'0 0.1
2016-Jul-18 20:33N 38°12' E 015°34'0 0.1
2016-Jul-18 19:32N 38°12' E 015°33'0 0.0
2016-Jul-18 18:32N 38°12' E 015°33'8 8.3
2016-Jul-18 17:33N 38°17' E 015°41'2424.5
2016-Jul-18 16:34N 38°30' E 015°14'  

Dump ship's entire track history